Time;durP1;ratioP1;P1;durP2;ratioP2;P2;SDS_P1;SDS_P2;PMS_P1;PMS_P2;Temp;Humidity;BMP_temperature;BMP_pressure;BME280_temperature;BME280_humidity;BME280_pressure;Samples;Min_cycle;Max_cycle;Signal;HPM_P1;HPM_P2
2022/02/15 00:01:13;;;;;;;59.03;41.72;;;11.00;99.90;;;;;;5115325;28;20046;-78
2022/02/15 00:04:17;;;;;;;59.10;41.13;;;11.00;99.90;;;;;;5115120;28;20407;-78
2022/02/15 00:07:21;;;;;;;61.13;43.40;;;11.00;99.90;;;;;;5102532;28;20142;-78
2022/02/15 00:10:25;;;;;;;58.85;42.25;;;10.90;99.90;;;;;;5115075;28;20050;-78
2022/02/15 00:13:29;;;;;;;57.50;42.53;;;10.90;99.90;;;;;;5115049;28;20038;-79
2022/02/15 00:16:33;;;;;;;59.88;43.45;;;10.80;99.90;;;;;;5115121;28;20046;-79
2022/02/15 00:19:37;;;;;;;63.33;44.78;;;10.80;99.90;;;;;;5114770;28;20039;-78
2022/02/15 00:22:41;;;;;;;65.47;45.53;;;10.80;99.90;;;;;;5115206;28;20050;-78
2022/02/15 00:25:46;;;;;;;66.53;46.17;;;10.70;99.90;;;;;;5114559;28;20058;-78
2022/02/15 00:28:50;;;;;;;65.82;45.45;;;10.60;99.90;;;;;;5113578;28;20197;-78
2022/02/15 00:31:54;;;;;;;61.00;41.53;;;10.50;99.90;;;;;;5115285;28;20498;-78
2022/02/15 00:34:58;;;;;;;56.15;40.95;;;10.50;99.90;;;;;;5115360;28;20058;-78
2022/02/15 00:38:02;;;;;;;56.53;39.13;;;10.50;99.90;;;;;;5114666;28;20058;-78
2022/02/15 00:41:07;;;;;;;56.08;37.00;;;10.50;99.90;;;;;;5116106;28;20050;-79
2022/02/15 00:44:11;;;;;;;60.53;35.58;;;10.50;99.90;;;;;;5115959;28;20055;-79
2022/02/15 00:47:16;;;;;;;48.65;35.10;;;10.40;99.90;;;;;;5116990;28;20395;-79
2022/02/15 00:50:20;;;;;;;48.13;34.58;;;10.40;99.90;;;;;;5103715;28;20419;-79
2022/02/15 00:53:24;;;;;;;49.55;32.75;;;10.50;99.90;;;;;;5103855;28;20043;-80
2022/02/15 00:56:28;;;;;;;44.08;31.23;;;10.60;99.90;;;;;;5115835;28;20097;-79
2022/02/15 00:59:33;;;;;;;42.35;29.40;;;10.50;99.90;;;;;;5115470;28;20043;-79
2022/02/15 01:02:37;;;;;;;41.33;29.33;;;10.50;99.90;;;;;;5115174;28;20054;-79
2022/02/15 01:05:40;;;;;;;41.45;29.27;;;10.50;99.90;;;;;;5114265;28;20352;-79
2022/02/15 01:08:45;;;;;;;44.42;28.40;;;10.50;99.90;;;;;;5112492;28;20497;-79
2022/02/15 01:11:49;;;;;;;43.08;29.05;;;10.50;99.90;;;;;;5112397;28;20050;-79
2022/02/15 01:14:54;;;;;;;40.78;28.50;;;10.50;99.90;;;;;;5113279;28;20050;-79
2022/02/15 01:17:58;;;;;;;42.72;26.90;;;10.40;99.90;;;;;;5113655;28;20042;-79
2022/02/15 01:21:02;;;;;;;43.58;28.02;;;10.50;99.90;;;;;;5113813;28;20054;-79
2022/02/15 01:24:07;;;;;;;40.53;28.10;;;10.50;99.90;;;;;;5114072;28;20078;-79
2022/02/15 01:27:11;;;;;;;37.35;27.80;;;10.60;99.90;;;;;;5113637;28;20050;-79
2022/02/15 01:30:15;;;;;;;39.53;27.40;;;10.60;99.90;;;;;;5113172;28;20105;-79
2022/02/15 01:33:20;;;;;;;37.40;25.00;;;10.60;99.90;;;;;;5112933;28;20042;-79
2022/02/15 01:36:24;;;;;;;36.97;23.90;;;10.60;99.90;;;;;;5112893;28;20058;-79
2022/02/15 01:39:28;;;;;;;30.33;22.00;;;10.60;99.90;;;;;;5112303;28;20054;-79
2022/02/15 01:42:32;;;;;;;33.60;23.45;;;10.60;99.90;;;;;;5112956;28;20272;-79
2022/02/15 01:45:36;;;;;;;25.15;17.95;;;10.70;99.90;;;;;;5111937;28;20043;-80
2022/02/15 01:48:42;;;;;;;24.95;17.85;;;10.80;99.90;;;;;;5112031;28;20055;-79
2022/02/15 01:51:46;;;;;;;32.90;22.20;;;11.00;99.90;;;;;;5112846;28;20067;-79
2022/02/15 01:54:53;;;;;;;25.70;19.48;;;11.00;99.90;;;;;;5111939;28;20407;-79
2022/02/15 01:57:57;;;;;;;26.77;19.95;;;11.00;99.90;;;;;;5112564;28;20042;-79
2022/02/15 02:01:04;;;;;;;23.77;19.08;;;10.90;99.90;;;;;;5112292;28;20043;-79
2022/02/15 02:07:39;;;;;;;24.98;17.70;;;10.90;99.90;;;;;;5112986;28;20050;-78
2022/02/15 02:10:45;;;;;;;23.75;17.50;;;10.90;99.90;;;;;;5111990;28;20047;-79
2022/02/15 02:14:12;;;;;;;26.08;17.60;;;10.90;99.90;;;;;;5113949;28;20043;-80
2022/02/15 02:17:23;;;;;;;;;;;10.80;99.90;;;;;;5111998;28;20051;-79
2022/02/15 02:20:28;;;;;;;20.58;15.00;;;10.80;99.90;;;;;;5112022;28;19908;-79
2022/02/15 02:23:32;;;;;;;23.70;15.82;;;10.90;99.90;;;;;;5112517;28;20506;-79
2022/02/15 02:26:44;;;;;;;23.33;16.05;;;10.90;99.90;;;;;;5111638;28;20046;-78
2022/02/15 02:29:51;;;;;;;20.23;15.90;;;10.90;99.90;;;;;;5112417;28;20042;-79
2022/02/15 02:32:56;;;;;;;23.83;15.98;;;10.90;99.90;;;;;;5111333;28;20044;-80
2022/02/15 02:36:01;;;;;;;23.25;17.65;;;10.80;99.90;;;;;;5112717;28;20051;-79
2022/02/15 02:39:06;;;;;;;18.63;14.45;;;10.70;99.90;;;;;;5113382;28;20039;-79
2022/02/15 02:42:12;;;;;;;21.58;15.55;;;10.90;99.90;;;;;;5114178;28;20046;-79
2022/02/15 02:45:19;;;;;;;18.50;15.15;;;10.90;99.90;;;;;;5113654;28;20498;-79
2022/02/15 02:48:23;;;;;;;30.83;16.30;;;10.90;99.90;;;;;;5100432;28;20051;-80
2022/02/15 02:51:27;;;;;;;20.80;15.90;;;10.90;99.90;;;;;;5111673;28;20043;-78
2022/02/15 02:54:32;;;;;;;38.65;24.25;;;10.90;99.90;;;;;;5115505;28;20038;-78
2022/02/15 02:57:39;;;;;;;20.25;14.82;;;10.80;99.90;;;;;;5115696;28;20046;-78
2022/02/15 03:00:44;;;;;;;20.08;14.50;;;10.90;99.90;;;;;;5115477;28;20051;-78
2022/02/15 03:03:55;;;;;;;18.52;13.25;;;10.90;99.90;;;;;;5115083;28;20062;-78
2022/02/15 03:06:59;;;;;;;19.90;13.60;;;11.00;99.90;;;;;;5114756;28;20502;-78
2022/02/15 03:10:04;;;;;;;19.50;13.50;;;10.90;99.60;;;;;;5115367;28;20051;-79
2022/02/15 03:13:11;;;;;;;16.52;13.15;;;11.00;99.90;;;;;;5115035;28;20058;-79
2022/02/15 03:16:15;;;;;;;18.67;13.50;;;11.00;99.90;;;;;;5114675;28;20047;-79
2022/02/15 03:19:20;;;;;;;17.45;13.45;;;11.00;99.90;;;;;;5115804;28;20518;-79
2022/02/15 03:22:25;;;;;;;17.15;12.40;;;11.00;99.90;;;;;;5115105;28;20055;-79
2022/02/15 03:25:30;;;;;;;20.52;11.82;;;11.10;99.90;;;;;;5114163;28;20055;-79
2022/02/15 03:28:36;;;;;;;19.77;13.25;;;11.10;99.90;;;;;;5114209;28;20050;-79
2022/02/15 03:31:41;;;;;;;17.48;12.57;;;11.10;99.90;;;;;;5102680;28;20042;-79
2022/02/15 03:34:46;;;;;;;17.35;11.95;;;11.10;99.90;;;;;;5102429;28;20039;-79
2022/02/15 03:37:50;;;;;;;15.38;12.00;;;11.00;99.90;;;;;;5114312;28;20047;-79
2022/02/15 03:44:26;;;;;;;15.73;11.95;;;11.00;99.90;;;;;;5114311;28;20062;-79
2022/02/15 03:47:35;;;;;;;16.02;11.02;;;11.00;99.90;;;;;;5103193;28;20046;-79
2022/02/15 03:50:39;;;;;;;16.98;10.63;;;11.10;99.90;;;;;;5114117;28;20055;-79
2022/02/15 03:53:45;;;;;;;19.90;11.95;;;11.10;99.90;;;;;;5114158;28;20391;-79
2022/02/15 03:56:49;;;;;;;17.48;11.80;;;11.20;99.90;;;;;;5113727;28;20062;-79
2022/02/15 03:59:53;;;;;;;14.82;11.43;;;11.10;99.90;;;;;;5113761;28;20368;-79
2022/02/15 04:03:06;;;;;;;16.45;9.60;;;11.00;99.90;;;;;;5114035;28;20054;-79
2022/02/15 04:06:10;;;;;;;12.82;9.60;;;11.10;99.90;;;;;;5113614;28;20039;-79
2022/02/15 04:09:14;;;;;;;13.15;9.25;;;11.20;99.90;;;;;;5113584;28;20220;-79
2022/02/15 04:12:19;;;;;;;15.02;9.02;;;11.40;99.90;;;;;;5113386;28;20426;-79
2022/02/15 04:15:24;;;;;;;13.07;8.75;;;11.40;99.70;;;;;;5112985;28;20042;-80
2022/02/15 04:18:33;;;;;;;15.98;9.57;;;11.50;99.90;;;;;;5113242;28;20514;-79
2022/02/15 04:21:37;;;;;;;11.70;8.00;;;11.50;99.70;;;;;;5113225;28;20047;-80
2022/02/15 04:24:42;;;;;;;14.00;7.78;;;11.60;99.20;;;;;;5113582;28;20042;-79
2022/02/15 04:27:46;;;;;;;15.10;8.73;;;11.70;98.80;;;;;;5101860;28;20035;-79
2022/02/15 04:30:52;;;;;;;13.57;8.45;;;11.80;98.60;;;;;;5113335;28;20506;-79
2022/02/15 04:33:56;;;;;;;11.13;8.05;;;11.80;98.60;;;;;;5101567;28;20399;-79
2022/02/15 04:37:01;;;;;;;15.20;8.05;;;11.80;98.50;;;;;;5113222;28;20050;-79
2022/02/15 04:40:10;;;;;;;17.77;7.97;;;11.80;98.10;;;;;;5113667;28;20035;-79
2022/02/15 04:43:15;;;;;;;9.77;7.35;;;11.90;98.00;;;;;;5114818;28;20050;-80
2022/02/15 04:46:21;;;;;;;12.18;7.63;;;11.90;97.80;;;;;;5115815;28;20050;-80
2022/02/15 04:49:25;;;;;;;9.27;5.40;;;11.80;97.70;;;;;;5116102;28;20054;-81
2022/02/15 04:52:30;;;;;;;9.05;5.00;;;11.90;97.30;;;;;;5104001;28;20047;-79
2022/02/15 04:55:38;;;;;;;9.05;5.97;;;11.90;96.50;;;;;;5116214;28;20046;-80
2022/02/15 04:58:47;;;;;;;14.15;5.53;;;12.00;96.50;;;;;;5092589;28;20391;-80
2022/02/15 05:01:51;;;;;;;6.68;5.18;;;12.20;96.20;;;;;;5116659;28;20097;-79
2022/02/15 05:05:01;;;;;;;9.35;5.38;;;12.20;95.80;;;;;;5116525;28;20051;-79
2022/02/15 05:08:19;;;;;;;6.32;3.83;;;12.30;95.70;;;;;;5116812;28;20054;-80
2022/02/15 05:11:23;;;;;;;4.85;3.80;;;12.30;95.00;;;;;;5116232;28;20498;-78
2022/02/15 05:14:39;;;;;;;7.55;4.30;;;12.40;94.70;;;;;;5115495;28;20047;-79
2022/02/15 05:17:46;;;;;;;7.57;3.90;;;12.50;94.10;;;;;;5116566;28;20046;-79
2022/02/15 05:20:53;;;;;;;7.13;5.03;;;12.60;94.20;;;;;;5117206;28;20046;-80
2022/02/15 05:23:57;;;;;;;13.18;4.82;;;12.70;94.60;;;;;;5115016;28;20054;-79
2022/02/15 05:27:11;;;;;;;12.82;5.90;;;12.70;94.00;;;;;;5103889;28;20045;-80
2022/02/15 05:30:24;;;;;;;11.80;5.38;;;12.70;94.70;;;;;;5114959;28;20066;-79
2022/02/15 05:33:44;;;;;;;9.90;4.93;;;12.70;95.10;;;;;;5116225;28;20046;-78
2022/02/15 05:36:50;;;;;;;7.05;4.50;;;12.70;94.50;;;;;;5114643;28;20066;-79
2022/02/15 05:39:57;;;;;;;10.10;5.32;;;12.70;94.10;;;;;;5114734;28;20063;-78
2022/02/15 05:43:16;;;;;;;10.15;5.70;;;12.70;94.40;;;;;;5100856;28;20431;-80
2022/02/15 05:46:21;;;;;;;16.98;7.00;;;12.70;95.00;;;;;;5102130;28;20035;-79
2022/02/15 05:50:49;;;;;;;9.47;6.03;;;12.70;95.50;;;;;;5114199;28;20066;-80
2022/02/15 05:53:00;;;;;;;8.85;5.50;;;12.70;95.20;;;;;;5114003;28;20066;-79
2022/02/15 05:56:06;;;;;;;13.93;7.25;;;12.70;94.50;;;;;;5112748;28;20050;-79
2022/02/15 05:59:35;;;;;;;15.13;8.18;;;12.70;95.00;;;;;;5104133;28;20051;-79
2022/02/15 06:02:45;;;;;;;9.23;7.43;;;12.70;95.50;;;;;;5111874;28;20042;-79
2022/02/15 06:05:53;;;;;;;13.90;8.45;;;12.70;95.60;;;;;;5099014;28;20054;-65
2022/02/15 06:09:02;;;;;;;14.27;8.00;;;12.70;95.90;;;;;;5110940;28;20533;-66
2022/02/15 06:12:07;;;;;;;13.73;8.35;;;12.60;96.20;;;;;;5110762;28;20058;-67
2022/02/15 06:15:17;;;;;;;12.30;8.63;;;12.60;96.20;;;;;;5110295;28;20047;-66
2022/02/15 06:18:41;;;;;;;19.55;10.25;;;12.60;96.50;;;;;;5111588;28;20050;-66
2022/02/15 06:21:47;;;;;;;16.50;9.73;;;12.50;96.60;;;;;;5098948;28;20427;-66
2022/02/15 06:24:56;;;;;;;18.67;10.48;;;12.50;96.60;;;;;;5109991;28;20055;-64
2022/02/15 06:28:13;;;;;;;17.27;9.75;;;12.40;96.90;;;;;;5113616;28;20046;-65
2022/02/15 06:31:29;;;;;;;15.10;10.57;;;12.40;97.00;;;;;;5114661;28;20051;-66
2022/02/15 06:34:34;;;;;;;15.77;10.43;;;12.40;96.90;;;;;;5114618;28;20042;-65
2022/02/15 06:37:46;;;;;;;19.08;10.85;;;12.40;97.00;;;;;;5114723;28;20046;-66
2022/02/15 06:40:50;;;;;;;16.35;9.95;;;12.50;97.00;;;;;;5114756;28;20043;-68
2022/02/15 06:44:07;;;;;;;27.83;14.05;;;12.50;97.10;;;;;;5102399;28;20502;-65
2022/02/15 06:47:17;;;;;;;18.83;11.18;;;12.50;97.00;;;;;;5103529;28;20050;-66
2022/02/15 06:50:21;;;;;;;36.78;26.10;;;12.50;96.90;;;;;;5114111;28;20058;-64
2022/02/15 06:53:26;;;;;;;29.38;19.52;;;12.50;97.20;;;;;;5115102;28;20058;-65
2022/02/15 06:56:46;;;;;;;26.45;16.00;;;12.50;97.40;;;;;;5113938;28;20538;-66
2022/02/15 06:59:59;;;;;;;17.58;12.32;;;12.50;97.60;;;;;;5114053;28;20142;-66
2022/02/15 07:03:03;;;;;;;16.33;11.00;;;12.50;97.60;;;;;;5113825;28;20054;-64
2022/02/15 07:06:08;;;;;;;16.08;11.90;;;12.50;97.70;;;;;;5114490;28;20447;-65
2022/02/15 07:09:12;;;;;;;25.65;12.05;;;12.50;97.90;;;;;;5113591;28;20039;-65
2022/02/15 07:12:36;;;;;;;19.52;11.52;;;12.60;98.40;;;;;;5114184;28;20398;-66
2022/02/15 07:15:53;;;;;;;22.63;9.48;;;12.60;98.30;;;;;;5113919;28;20035;-66
2022/02/15 07:18:58;;;;;;;9.50;6.00;;;12.60;98.00;;;;;;5101900;28;20062;-67
2022/02/15 07:22:32;;;;;;;12.73;5.47;;;12.70;97.40;;;;;;5114783;28;20039;-68
2022/02/15 07:25:56;;;;;;;7.88;4.72;;;12.90;97.10;;;;;;5113114;28;20050;-67
2022/02/15 07:29:19;;;;;;;11.73;6.78;;;13.20;96.10;;;;;;5113616;28;20039;-67
2022/02/15 07:33:03;;;;;;;16.40;11.15;;;13.40;96.20;;;;;;5113539;28;20046;-68
2022/02/15 07:36:12;;;;;;;14.88;11.20;;;13.40;96.40;;;;;;5112958;28;20039;-68
2022/02/15 07:39:16;;;;;;;16.25;11.55;;;13.40;96.40;;;;;;5112374;28;20050;-67
2022/02/15 07:42:23;;;;;;;21.77;12.80;;;13.30;96.50;;;;;;5113859;28;20039;-67
2022/02/15 07:45:32;;;;;;;25.48;14.48;;;13.30;96.70;;;;;;5101994;28;20062;-67
2022/02/15 07:48:36;;;;;;;21.17;10.32;;;13.20;96.90;;;;;;5112636;28;20051;-69
2022/02/15 07:51:40;;;;;;;20.55;13.20;;;13.20;97.00;;;;;;5113926;28;20046;-68
2022/02/15 07:54:44;;;;;;;19.02;12.48;;;13.10;97.10;;;;;;5113698;28;20395;-67
2022/02/15 07:57:48;;;;;;;20.38;10.93;;;13.10;97.40;;;;;;5113145;28;20046;-68
2022/02/15 08:00:53;;;;;;;10.32;5.95;;;13.10;97.50;;;;;;5114050;28;20128;-66
2022/02/15 08:03:58;;;;;;;20.48;6.90;;;13.20;97.10;;;;;;5113608;28;20050;-68
2022/02/15 08:07:03;;;;;;;11.07;4.63;;;13.20;97.00;;;;;;5112754;28;20047;-67
2022/02/15 08:10:08;;;;;;;7.85;3.95;;;13.30;96.50;;;;;;5113066;28;20146;-69
2022/02/15 08:13:18;;;;;;;15.27;4.50;;;13.40;96.30;;;;;;5112665;28;20042;-68
2022/02/15 08:16:22;;;;;;;10.98;4.13;;;13.50;95.70;;;;;;5113323;28;20502;-68
2022/02/15 08:19:27;;;;;;;10.00;4.40;;;13.60;95.20;;;;;;5112134;28;20047;-67
2022/02/15 08:22:31;;;;;;;12.10;4.28;;;13.70;95.40;;;;;;5113307;28;20042;-68
2022/02/15 08:25:35;;;;;;;12.98;4.65;;;13.70;95.80;;;;;;5100425;28;20065;-69
2022/02/15 08:28:43;;;;;;;8.18;3.40;;;13.70;96.20;;;;;;5112223;28;20047;-69
2022/02/15 08:31:48;;;;;;;8.52;4.40;;;13.70;97.10;;;;;;5112630;28;20261;-69
2022/02/15 08:34:52;;;;;;;12.13;4.30;;;13.70;97.80;;;;;;5112857;28;20612;-69
2022/02/15 08:37:56;;;;;;;8.90;4.28;;;13.70;98.60;;;;;;5112730;28;20506;-70
2022/02/15 08:41:01;;;;;;;10.50;4.68;;;13.60;98.90;;;;;;5112876;28;20043;-70
2022/02/15 08:44:05;;;;;;;10.30;4.22;;;13.50;99.30;;;;;;5112464;28;20121;-69
2022/02/15 08:47:10;;;;;;;12.10;4.57;;;13.50;99.60;;;;;;5112886;28;20387;-69
2022/02/15 08:50:15;;;;;;;12.88;4.78;;;13.40;99.90;;;;;;5111777;28;20054;-67
2022/02/15 08:53:19;;;;;;;12.57;5.57;;;13.40;99.90;;;;;;5112678;28;20384;-68
2022/02/15 08:56:23;;;;;;;13.32;4.10;;;13.30;99.90;;;;;;5112379;28;20304;-68
2022/02/15 08:59:27;;;;;;;7.53;3.90;;;13.30;99.90;;;;;;5112264;28;20173;-68
2022/02/15 09:02:32;;;;;;;7.28;3.78;;;13.30;99.90;;;;;;5112299;28;20063;-68
2022/02/15 09:05:36;;;;;;;9.95;3.15;;;13.30;99.90;;;;;;5099804;28;20055;-69
2022/02/15 09:08:40;;;;;;;5.68;1.92;;;13.30;99.90;;;;;;5111412;28;20050;-67
2022/02/15 09:11:45;;;;;;;8.02;2.35;;;13.30;99.90;;;;;;5112274;28;20042;-67
2022/02/15 09:14:49;;;;;;;6.57;2.08;;;13.30;99.10;;;;;;5110984;28;20391;-69
2022/02/15 09:17:55;;;;;;;7.85;2.50;;;13.30;99.00;;;;;;5112236;28;20047;-70
2022/02/15 09:21:03;;;;;;;8.80;2.45;;;13.20;98.90;;;;;;5112258;28;20392;-68
2022/02/15 09:24:09;;;;;;;13.15;3.50;;;13.20;99.00;;;;;;5099372;28;20050;-69
2022/02/15 09:27:13;;;;;;;11.15;3.20;;;13.10;99.00;;;;;;5111623;28;20118;-70
2022/02/15 09:30:17;;;;;;;15.38;4.22;;;13.10;99.20;;;;;;5111055;28;20055;-68
2022/02/15 09:33:24;;;;;;;16.08;3.78;;;13.20;99.50;;;;;;5110705;28;20043;-68
2022/02/15 09:36:28;;;;;;;15.15;4.35;;;13.20;99.70;;;;;;5111480;28;20034;-69
2022/02/15 09:39:32;;;;;;;12.65;5.13;;;13.20;99.90;;;;;;5111825;28;20055;-70
2022/02/15 09:42:39;;;;;;;28.63;6.00;;;13.30;99.90;;;;;;5110724;28;20054;-70
2022/02/15 09:45:48;;;;;;;24.73;5.22;;;13.40;99.90;;;;;;5111481;28;20058;-70
2022/02/15 09:48:54;;;;;;;24.17;4.28;;;13.50;99.90;;;;;;5111415;28;20070;-71
2022/02/15 09:51:59;;;;;;;25.13;6.38;;;13.60;99.90;;;;;;5111844;28;20039;-69
2022/02/15 09:55:04;;;;;;;27.38;5.45;;;13.60;99.90;;;;;;5110466;28;20537;-70
2022/02/15 09:58:08;;;;;;;37.70;5.82;;;13.60;99.90;;;;;;5111407;28;20079;-70
2022/02/15 10:01:15;;;;;;;25.27;5.45;;;13.60;99.90;;;;;;5110796;28;20514;-70
2022/02/15 10:04:34;;;;;;;23.83;5.05;;;13.60;99.90;;;;;;5110372;28;20054;-72
2022/02/15 10:07:47;;;;;;;27.10;6.60;;;13.60;99.90;;;;;;5110204;28;20050;-70
2022/02/15 10:10:52;;;;;;;31.30;6.85;;;13.60;99.90;;;;;;5111406;28;20050;-68
2022/02/15 10:13:56;;;;;;;30.55;6.30;;;13.60;99.90;;;;;;5111271;28;20105;-67
2022/02/15 10:17:01;;;;;;;21.77;5.07;;;13.60;99.90;;;;;;5111244;28;20047;-68
2022/02/15 10:20:08;;;;;;;36.90;5.70;;;13.60;99.90;;;;;;5111126;28;20501;-68
2022/02/15 10:23:18;;;;;;;20.50;5.13;;;13.60;99.90;;;;;;5111174;28;20035;-67
2022/02/15 10:26:22;;;;;;;33.13;6.43;;;13.60;99.90;;;;;;5111361;28;20109;-68
2022/02/15 10:29:29;;;;;;;20.75;6.15;;;13.70;99.90;;;;;;5110990;28;20042;-68
2022/02/15 10:32:34;;;;;;;28.70;5.72;;;13.70;99.90;;;;;;5111015;28;20529;-68
2022/02/15 10:35:40;;;;;;;29.92;5.22;;;13.70;99.90;;;;;;5109928;28;20359;-71
2022/02/15 10:38:49;;;;;;;35.65;5.63;;;13.60;99.90;;;;;;5110881;28;20039;-69
2022/02/15 10:42:13;;;;;;;32.60;4.80;;;13.70;99.90;;;;;;5111144;28;20050;-68
2022/02/15 10:45:17;;;;;;;24.58;4.60;;;13.70;99.90;;;;;;5110132;28;20407;-68
2022/02/15 10:48:29;;;;;;;18.90;4.50;;;13.70;99.90;;;;;;5110097;28;20415;-70
2022/02/15 10:51:33;;;;;;;27.92;4.03;;;13.70;99.90;;;;;;5110983;28;20050;-68
2022/02/15 10:54:38;;;;;;;17.40;4.93;;;13.70;99.90;;;;;;5110033;28;20043;-69
2022/02/15 10:57:42;;;;;;;18.67;5.05;;;13.70;99.90;;;;;;5111220;28;20069;-69
2022/02/15 11:00:48;;;;;;;20.83;6.22;;;13.70;99.90;;;;;;5111087;28;20047;-71
2022/02/15 11:03:55;;;;;;;14.68;5.05;;;13.80;99.90;;;;;;5112213;28;20051;-73
2022/02/15 11:07:06;;;;;;;12.60;3.55;;;13.80;99.90;;;;;;5110569;28;20051;-69
2022/02/15 11:10:19;;;;;;;10.50;3.95;;;13.90;99.90;;;;;;5111003;28;20399;-70
2022/02/15 11:13:24;;;;;;;10.60;3.28;;;13.90;99.90;;;;;;5112430;28;20058;-69
2022/02/15 11:16:32;;;;;;;14.70;3.65;;;13.90;99.40;;;;;;5114120;28;20058;-71
2022/02/15 11:19:39;;;;;;;12.93;3.45;;;13.90;99.00;;;;;;5116465;28;20046;-70
2022/02/15 11:22:48;;;;;;;15.23;3.88;;;14.00;98.90;;;;;;5114153;28;20062;-70
2022/02/15 11:26:12;;;;;;;10.15;2.97;;;14.00;98.70;;;;;;5114916;28;20395;-72
2022/02/15 11:29:23;;;;;;;16.00;5.10;;;13.90;98.30;;;;;;5114407;28;20066;-69
2022/02/15 11:32:31;;;;;;;11.52;3.45;;;13.90;98.40;;;;;;5113821;28;20208;-69
2022/02/15 11:35:35;;;;;;;11.48;3.13;;;13.90;98.50;;;;;;5114880;28;20043;-69
2022/02/15 11:38:54;;;;;;;15.40;3.85;;;13.90;98.50;;;;;;5115331;28;20050;-70
2022/02/15 11:42:00;;;;;;;12.63;3.80;;;14.10;98.60;;;;;;5102905;28;20506;-70
2022/02/15 11:45:33;;;;;;;15.20;4.45;;;14.20;98.70;;;;;;5114666;28;20054;-70
2022/02/15 11:48:40;;;;;;;10.13;3.45;;;14.30;98.80;;;;;;5113173;28;20059;-70
2022/02/15 11:51:46;;;;;;;14.02;3.30;;;14.40;98.70;;;;;;5113895;28;20256;-69
2022/02/15 11:54:51;;;;;;;23.05;3.83;;;14.40;98.50;;;;;;5113156;28;20042;-69
2022/02/15 11:57:55;;;;;;;10.50;3.50;;;14.50;98.40;;;;;;5114262;28;20510;-71
2022/02/15 12:00:59;;;;;;;12.05;3.55;;;14.60;98.40;;;;;;5114683;28;20035;-71
2022/02/15 12:04:10;;;;;;;12.60;3.33;;;14.60;98.50;;;;;;5114944;28;20059;-71
2022/02/15 12:07:15;;;;;;;19.27;3.42;;;14.70;98.60;;;;;;5114808;28;20047;-70
2022/02/15 12:10:19;;;;;;;14.82;3.30;;;14.70;98.50;;;;;;5114341;28;20141;-71
2022/02/15 12:13:23;;;;;;;14.55;3.20;;;14.70;98.50;;;;;;5112463;28;20427;-69
2022/02/15 12:16:46;;;;;;;19.30;3.58;;;14.70;98.50;;;;;;5112517;28;20443;-67
2022/02/15 12:19:55;;;;;;;23.20;3.40;;;14.60;98.10;;;;;;5112409;28;20058;-69
2022/02/15 12:23:02;;;;;;;18.60;3.45;;;14.60;98.00;;;;;;5113289;28;20398;-68
2022/02/15 12:26:23;;;;;;;20.98;3.53;;;14.60;98.10;;;;;;5111647;28;20058;-70
2022/02/15 12:29:28;;;;;;;10.55;3.00;;;14.60;98.30;;;;;;5113401;28;20047;-70
2022/02/15 12:32:32;;;;;;;12.07;3.35;;;14.60;98.60;;;;;;5112186;28;20439;-69
2022/02/15 12:35:37;;;;;;;12.73;3.67;;;14.70;98.90;;;;;;5113050;28;20046;-68
2022/02/15 12:38:41;;;;;;;15.73;3.25;;;14.70;99.00;;;;;;5113032;28;20050;-70
2022/02/15 12:41:49;;;;;;;17.10;2.97;;;14.80;98.90;;;;;;5112924;28;20359;-67
2022/02/15 12:45:04;;;;;;;9.80;3.05;;;14.80;98.70;;;;;;5111948;28;20050;-67
2022/02/15 12:48:10;;;;;;;11.73;2.80;;;14.80;98.60;;;;;;5100130;28;20050;-68
2022/02/15 12:51:14;;;;;;;8.00;2.90;;;14.80;98.50;;;;;;5113305;28;20501;-68
2022/02/15 12:54:19;;;;;;;6.72;2.00;;;14.70;97.30;;;;;;5112461;28;20050;-67
2022/02/15 12:57:26;;;;;;;8.88;2.33;;;14.50;97.00;;;;;;5112687;28;20134;-67
2022/02/15 13:00:30;;;;;;;5.32;2.47;;;14.30;97.30;;;;;;5112088;28;20390;-68
2022/02/15 13:03:34;;;;;;;10.13;3.72;;;14.00;98.20;;;;;;5112405;28;20051;-69
2022/02/15 13:06:39;;;;;;;5.80;2.53;;;13.70;99.00;;;;;;5112447;28;20125;-71
2022/02/15 13:10:01;;;;;;;5.72;2.53;;;13.50;99.30;;;;;;5112274;28;20054;-70
2022/02/15 13:13:10;;;;;;;7.20;1.98;;;13.40;99.70;;;;;;5112622;28;20046;-69
2022/02/15 13:16:14;;;;;;;4.43;1.23;;;13.30;99.80;;;;;;5112522;28;20050;-72
2022/02/15 13:19:18;;;;;;;6.47;1.88;;;13.40;99.50;;;;;;5111759;28;20502;-72
2022/02/15 13:22:23;;;;;;;4.07;1.48;;;13.50;99.20;;;;;;5111807;28;20047;-70
2022/02/15 13:25:48;;;;;;;5.55;2.13;;;13.60;99.10;;;;;;5111131;28;20419;-69
2022/02/15 13:28:52;;;;;;;5.00;2.97;;;13.70;98.70;;;;;;5112096;28;20035;-69
2022/02/15 13:31:59;;;;;;;5.72;2.83;;;13.80;98.90;;;;;;5111855;28;20399;-69
2022/02/15 13:35:04;;;;;;;9.57;2.80;;;14.00;98.40;;;;;;5111439;28;20039;-71
2022/02/15 13:38:11;;;;;;;8.02;3.33;;;13.90;98.90;;;;;;5112231;28;20541;-72
2022/02/15 13:41:15;;;;;;;9.75;3.40;;;13.90;98.70;;;;;;5099571;28;20502;-70
2022/02/15 13:44:21;;;;;;;5.45;2.97;;;14.00;99.10;;;;;;5111600;28;20054;-69
2022/02/15 13:47:26;;;;;;;6.30;2.60;;;14.00;99.10;;;;;;5110862;28;20047;-70
2022/02/15 13:50:31;;;;;;;5.53;2.65;;;14.10;98.90;;;;;;5110721;28;20050;-71
2022/02/15 13:53:35;;;;;;;7.53;3.40;;;14.20;98.50;;;;;;5111464;28;20051;-70
2022/02/15 13:56:40;;;;;;;10.20;3.30;;;14.20;98.00;;;;;;5111861;28;20055;-72
2022/02/15 13:59:44;;;;;;;10.75;3.70;;;14.30;98.20;;;;;;5111874;28;20042;-68
2022/02/15 14:02:51;;;;;;;8.77;4.07;;;14.40;98.00;;;;;;5111476;28;20042;-70
2022/02/15 14:05:55;;;;;;;7.70;4.80;;;14.40;97.50;;;;;;5110798;28;20398;-68
2022/02/15 14:08:59;;;;;;;6.97;4.32;;;14.40;97.80;;;;;;5111530;28;20039;-69
2022/02/15 14:12:05;;;;;;;8.07;3.72;;;14.30;97.90;;;;;;5110964;28;20209;-71
2022/02/15 14:15:13;;;;;;;8.95;4.28;;;14.10;97.50;;;;;;5110412;28;20050;-69
2022/02/15 14:18:18;;;;;;;7.65;3.83;;;14.00;98.10;;;;;;5111287;28;20042;-69
2022/02/15 14:21:22;;;;;;;12.20;5.30;;;13.80;97.90;;;;;;5111274;28;20051;-69
2022/02/15 14:24:26;;;;;;;10.73;4.50;;;13.90;98.50;;;;;;5110999;28;20070;-69
2022/02/15 14:27:31;;;;;;;10.70;4.25;;;14.00;98.80;;;;;;5111005;28;20399;-69
2022/02/15 14:30:35;;;;;;;17.42;4.05;;;14.00;98.80;;;;;;5110925;28;20051;-69
2022/02/15 14:33:43;;;;;;;10.00;2.97;;;14.10;98.80;;;;;;5111073;28;20062;-69
2022/02/15 14:36:47;;;;;;;9.18;2.33;;;14.20;98.60;;;;;;5110951;28;20402;-69
2022/02/15 14:39:54;;;;;;;12.30;1.98;;;14.30;98.60;;;;;;5111153;28;20047;-69
2022/02/15 14:42:58;;;;;;;14.77;2.47;;;14.40;97.90;;;;;;5110968;28;20050;-68
2022/02/15 14:46:03;;;;;;;9.57;2.67;;;14.50;97.90;;;;;;5110066;28;20055;-69
2022/02/15 14:49:08;;;;;;;15.02;3.08;;;14.50;97.60;;;;;;5113723;28;20050;-69
2022/02/15 14:52:13;;;;;;;12.85;2.40;;;14.60;97.20;;;;;;5114461;28;20042;-69
2022/02/15 14:55:23;;;;;;;11.38;2.13;;;14.60;96.30;;;;;;5114730;28;20410;-69
2022/02/15 14:58:28;;;;;;;6.13;2.42;;;14.50;96.20;;;;;;5114685;28;20038;-68
2022/02/15 15:01:32;;;;;;;8.30;3.63;;;14.50;95.90;;;;;;5114740;28;20043;-68
2022/02/15 15:04:37;;;;;;;14.27;6.78;;;14.40;96.60;;;;;;5113663;28;20054;-69
2022/02/15 15:07:42;;;;;;;13.38;5.78;;;14.30;97.00;;;;;;5114552;28;20415;-68
2022/02/15 15:10:47;;;;;;;16.20;6.85;;;14.20;96.80;;;;;;5101955;28;20039;-68
2022/02/15 15:13:53;;;;;;;11.07;5.00;;;14.10;97.10;;;;;;5114638;28;20502;-68
2022/02/15 15:16:57;;;;;;;16.98;7.93;;;14.10;97.40;;;;;;5114498;28;20046;-67
2022/02/15 15:20:01;;;;;;;13.05;5.65;;;14.10;97.50;;;;;;5114768;28;20042;-68
2022/02/15 15:23:08;;;;;;;6.75;2.33;;;14.10;97.40;;;;;;5114268;28;20046;-68
2022/02/15 15:26:12;;;;;;;12.25;2.40;;;14.20;97.30;;;;;;5113375;28;20415;-69
2022/02/15 15:29:17;;;;;;;12.73;2.50;;;14.20;96.70;;;;;;5114148;28;20047;-69
2022/02/15 15:32:24;;;;;;;10.23;2.50;;;14.30;96.80;;;;;;5112897;28;20050;-68
2022/02/15 15:35:29;;;;;;;13.20;3.03;;;14.30;96.60;;;;;;5113123;28;20035;-68
2022/02/15 15:38:35;;;;;;;12.88;3.53;;;14.30;96.40;;;;;;5101781;28;20054;-72
2022/02/15 15:41:39;;;;;;;11.68;5.50;;;14.30;96.50;;;;;;5114791;28;20054;-72
2022/02/15 15:44:46;;;;;;;10.32;3.78;;;14.30;96.50;;;;;;5113921;28;20525;-73
2022/02/15 15:47:51;;;;;;;8.93;3.25;;;14.30;96.40;;;;;;5113743;28;20038;-71
2022/02/15 15:50:56;;;;;;;21.88;3.63;;;14.30;96.20;;;;;;5113266;28;20054;-71
2022/02/15 15:54:02;;;;;;;13.35;3.63;;;14.30;96.20;;;;;;5102028;28;20042;-73
2022/02/15 15:57:07;;;;;;;18.40;4.43;;;14.30;96.30;;;;;;5114970;28;20084;-73
2022/02/15 16:00:12;;;;;;;14.38;3.42;;;14.30;96.40;;;;;;5112856;28;20063;-70
2022/02/15 16:03:19;;;;;;;15.20;4.75;;;14.30;96.40;;;;;;5113020;28;20046;-70
2022/02/15 16:06:24;;;;;;;19.40;4.40;;;14.30;96.50;;;;;;5112494;28;20067;-70